sensor_id;sensor_type;location;lat;lon;timestamp;P1;durP1;ratioP1;P2;durP2;ratioP2
45326;SDS011;31062;49.678;24.560;2022-07-15T00:02:08;4.93;;;3.13;;
45326;SDS011;31062;49.678;24.560;2022-07-15T00:04:53;6.80;;;3.97;;
45326;SDS011;31062;49.678;24.560;2022-07-15T00:07:39;3.35;;;3.13;;
45326;SDS011;31062;49.678;24.560;2022-07-15T00:10:24;7.15;;;3.47;;
45326;SDS011;31062;49.678;24.560;2022-07-15T00:13:10;5.30;;;2.95;;
45326;SDS011;31062;49.678;24.560;2022-07-15T00:15:55;4.18;;;3.25;;
45326;SDS011;31062;49.678;24.560;2022-07-15T00:18:41;4.80;;;3.50;;
45326;SDS011;31062;49.678;24.560;2022-07-15T00:21:26;5.57;;;3.67;;
45326;SDS011;31062;49.678;24.560;2022-07-15T00:24:11;3.60;;;3.30;;
45326;SDS011;31062;49.678;24.560;2022-07-15T00:26:57;4.10;;;2.97;;
45326;SDS011;31062;49.678;24.560;2022-07-15T00:29:42;6.53;;;3.33;;
45326;SDS011;31062;49.678;24.560;2022-07-15T00:32:28;3.70;;;3.00;;
45326;SDS011;31062;49.678;24.560;2022-07-15T00:35:13;10.82;;;3.15;;
45326;SDS011;31062;49.678;24.560;2022-07-15T00:37:59;9.65;;;3.25;;
45326;SDS011;31062;49.678;24.560;2022-07-15T00:40:46;4.35;;;3.30;;
45326;SDS011;31062;49.678;24.560;2022-07-15T00:43:33;6.85;;;3.30;;
45326;SDS011;31062;49.678;24.560;2022-07-15T00:46:19;7.10;;;3.33;;
45326;SDS011;31062;49.678;24.560;2022-07-15T00:49:07;5.43;;;3.20;;
45326;SDS011;31062;49.678;24.560;2022-07-15T00:51:54;5.15;;;3.50;;
45326;SDS011;31062;49.678;24.560;2022-07-15T00:54:40;5.53;;;3.47;;
45326;SDS011;31062;49.678;24.560;2022-07-15T00:57:27;4.47;;;3.75;;
45326;SDS011;31062;49.678;24.560;2022-07-15T01:00:14;6.07;;;3.53;;
45326;SDS011;31062;49.678;24.560;2022-07-15T01:02:59;4.63;;;3.63;;
45326;SDS011;31062;49.678;24.560;2022-07-15T01:05:47;4.47;;;3.97;;
45326;SDS011;31062;49.678;24.560;2022-07-15T01:08:33;5.55;;;3.95;;
45326;SDS011;31062;49.678;24.560;2022-07-15T01:11:18;6.38;;;3.53;;
45326;SDS011;31062;49.678;24.560;2022-07-15T01:14:06;6.07;;;3.58;;
45326;SDS011;31062;49.678;24.560;2022-07-15T01:16:52;3.80;;;3.30;;
45326;SDS011;31062;49.678;24.560;2022-07-15T01:19:39;7.50;;;3.75;;
45326;SDS011;31062;49.678;24.560;2022-07-15T01:22:25;7.65;;;3.35;;
45326;SDS011;31062;49.678;24.560;2022-07-15T01:25:11;3.92;;;3.53;;
45326;SDS011;31062;49.678;24.560;2022-07-15T01:27:57;7.20;;;3.92;;
45326;SDS011;31062;49.678;24.560;2022-07-15T01:30:45;3.72;;;3.33;;
45326;SDS011;31062;49.678;24.560;2022-07-15T01:33:33;3.72;;;3.42;;
45326;SDS011;31062;49.678;24.560;2022-07-15T01:36:18;4.32;;;3.40;;
45326;SDS011;31062;49.678;24.560;2022-07-15T01:39:11;8.32;;;3.40;;
45326;SDS011;31062;49.678;24.560;2022-07-15T01:42:17;7.85;;;3.72;;
45326;SDS011;31062;49.678;24.560;2022-07-15T01:45:04;7.65;;;3.58;;
45326;SDS011;31062;49.678;24.560;2022-07-15T01:47:50;5.97;;;3.30;;
45326;SDS011;31062;49.678;24.560;2022-07-15T01:50:58;4.72;;;3.30;;
45326;SDS011;31062;49.678;24.560;2022-07-15T01:53:45;4.85;;;2.80;;
45326;SDS011;31062;49.678;24.560;2022-07-15T01:56:30;3.92;;;3.63;;
45326;SDS011;31062;49.678;24.560;2022-07-15T01:59:16;4.82;;;3.38;;
45326;SDS011;31062;49.678;24.560;2022-07-15T02:02:02;5.05;;;3.40;;
45326;SDS011;31062;49.678;24.560;2022-07-15T02:04:48;3.33;;;3.03;;
45326;SDS011;31062;49.678;24.560;2022-07-15T02:07:34;3.47;;;2.80;;
45326;SDS011;31062;49.678;24.560;2022-07-15T02:10:19;5.53;;;2.95;;
45326;SDS011;31062;49.678;24.560;2022-07-15T02:13:10;5.57;;;3.10;;
45326;SDS011;31062;49.678;24.560;2022-07-15T02:15:57;2.80;;;2.60;;
45326;SDS011;31062;49.678;24.560;2022-07-15T02:18:43;2.72;;;2.53;;
45326;SDS011;31062;49.678;24.560;2022-07-15T02:21:28;3.70;;;2.72;;
45326;SDS011;31062;49.678;24.560;2022-07-15T02:24:17;2.92;;;2.50;;
45326;SDS011;31062;49.678;24.560;2022-07-15T02:27:04;5.55;;;3.80;;
45326;SDS011;31062;49.678;24.560;2022-07-15T02:29:49;5.43;;;2.97;;
45326;SDS011;31062;49.678;24.560;2022-07-15T02:32:38;5.60;;;3.50;;
45326;SDS011;31062;49.678;24.560;2022-07-15T02:35:23;5.28;;;2.97;;
45326;SDS011;31062;49.678;24.560;2022-07-15T02:38:10;5.53;;;3.05;;
45326;SDS011;31062;49.678;24.560;2022-07-15T02:40:56;10.10;;;3.10;;
45326;SDS011;31062;49.678;24.560;2022-07-15T02:43:41;4.03;;;2.88;;
45326;SDS011;31062;49.678;24.560;2022-07-15T02:46:28;3.92;;;2.97;;
45326;SDS011;31062;49.678;24.560;2022-07-15T02:49:15;3.75;;;3.00;;
45326;SDS011;31062;49.678;24.560;2022-07-15T02:52:01;3.25;;;2.95;;
45326;SDS011;31062;49.678;24.560;2022-07-15T02:54:51;9.73;;;3.67;;
45326;SDS011;31062;49.678;24.560;2022-07-15T02:57:38;3.50;;;3.20;;
45326;SDS011;31062;49.678;24.560;2022-07-15T03:00:24;3.70;;;3.33;;
45326;SDS011;31062;49.678;24.560;2022-07-15T03:03:15;6.78;;;3.08;;
45326;SDS011;31062;49.678;24.560;2022-07-15T03:06:01;2.72;;;2.28;;
45326;SDS011;31062;49.678;24.560;2022-07-15T03:08:47;2.90;;;2.40;;
45326;SDS011;31062;49.678;24.560;2022-07-15T03:11:34;2.45;;;2.25;;
45326;SDS011;31062;49.678;24.560;2022-07-15T03:14:21;2.50;;;2.30;;
45326;SDS011;31062;49.678;24.560;2022-07-15T03:17:07;2.63;;;2.42;;
45326;SDS011;31062;49.678;24.560;2022-07-15T03:19:53;4.85;;;2.08;;
45326;SDS011;31062;49.678;24.560;2022-07-15T03:22:43;2.40;;;2.20;;
45326;SDS011;31062;49.678;24.560;2022-07-15T03:25:29;3.50;;;2.15;;
45326;SDS011;31062;49.678;24.560;2022-07-15T03:28:20;2.88;;;2.03;;
45326;SDS011;31062;49.678;24.560;2022-07-15T03:31:06;2.85;;;2.30;;
45326;SDS011;31062;49.678;24.560;2022-07-15T03:33:52;2.35;;;2.15;;
45326;SDS011;31062;49.678;24.560;2022-07-15T03:36:42;3.00;;;2.22;;
45326;SDS011;31062;49.678;24.560;2022-07-15T03:39:27;2.47;;;2.20;;
45326;SDS011;31062;49.678;24.560;2022-07-15T03:42:13;2.50;;;2.30;;
45326;SDS011;31062;49.678;24.560;2022-07-15T03:45:00;2.80;;;2.60;;
45326;SDS011;31062;49.678;24.560;2022-07-15T03:47:47;2.60;;;2.40;;
45326;SDS011;31062;49.678;24.560;2022-07-15T03:50:33;2.85;;;2.53;;
45326;SDS011;31062;49.678;24.560;2022-07-15T03:53:20;3.53;;;2.67;;
45326;SDS011;31062;49.678;24.560;2022-07-15T03:56:06;2.63;;;2.38;;
45326;SDS011;31062;49.678;24.560;2022-07-15T03:58:52;3.42;;;2.33;;
45326;SDS011;31062;49.678;24.560;2022-07-15T04:01:38;3.22;;;2.92;;
45326;SDS011;31062;49.678;24.560;2022-07-15T04:04:24;2.53;;;2.33;;
45326;SDS011;31062;49.678;24.560;2022-07-15T04:07:09;3.33;;;2.83;;
45326;SDS011;31062;49.678;24.560;2022-07-15T04:09:54;2.95;;;2.75;;
45326;SDS011;31062;49.678;24.560;2022-07-15T04:12:40;2.85;;;2.50;;
45326;SDS011;31062;49.678;24.560;2022-07-15T04:15:32;2.92;;;2.55;;
45326;SDS011;31062;49.678;24.560;2022-07-15T04:18:17;8.55;;;2.63;;
45326;SDS011;31062;49.678;24.560;2022-07-15T04:21:04;2.85;;;2.65;;
45326;SDS011;31062;49.678;24.560;2022-07-15T04:23:50;2.85;;;2.65;;
45326;SDS011;31062;49.678;24.560;2022-07-15T04:26:36;2.47;;;2.35;;
45326;SDS011;31062;49.678;24.560;2022-07-15T04:29:22;2.72;;;2.53;;
45326;SDS011;31062;49.678;24.560;2022-07-15T04:32:08;3.70;;;2.80;;
45326;SDS011;31062;49.678;24.560;2022-07-15T04:34:58;5.75;;;2.45;;
45326;SDS011;31062;49.678;24.560;2022-07-15T04:37:44;5.88;;;2.72;;
45326;SDS011;31062;49.678;24.560;2022-07-15T04:40:30;5.72;;;2.50;;
45326;SDS011;31062;49.678;24.560;2022-07-15T04:43:20;2.95;;;2.75;;
45326;SDS011;31062;49.678;24.560;2022-07-15T04:46:06;4.35;;;3.00;;
45326;SDS011;31062;49.678;24.560;2022-07-15T04:48:53;4.88;;;2.72;;
45326;SDS011;31062;49.678;24.560;2022-07-15T04:51:58;9.85;;;3.13;;
45326;SDS011;31062;49.678;24.560;2022-07-15T04:54:43;5.75;;;2.70;;
45326;SDS011;31062;49.678;24.560;2022-07-15T04:57:29;3.40;;;2.80;;
45326;SDS011;31062;49.678;24.560;2022-07-15T05:00:20;8.27;;;2.30;;
45326;SDS011;31062;49.678;24.560;2022-07-15T05:03:09;2.70;;;2.38;;
45326;SDS011;31062;49.678;24.560;2022-07-15T05:05:58;3.75;;;3.00;;
45326;SDS011;31062;49.678;24.560;2022-07-15T05:08:50;3.03;;;2.30;;
45326;SDS011;31062;49.678;24.560;2022-07-15T05:11:36;2.53;;;2.33;;
45326;SDS011;31062;49.678;24.560;2022-07-15T05:14:21;4.20;;;2.72;;
45326;SDS011;31062;49.678;24.560;2022-07-15T05:17:07;3.08;;;2.63;;
45326;SDS011;31062;49.678;24.560;2022-07-15T05:19:55;3.58;;;2.58;;
45326;SDS011;31062;49.678;24.560;2022-07-15T05:22:42;3.00;;;2.80;;
45326;SDS011;31062;49.678;24.560;2022-07-15T05:25:29;2.70;;;2.50;;
45326;SDS011;31062;49.678;24.560;2022-07-15T05:28:15;3.17;;;2.83;;
45326;SDS011;31062;49.678;24.560;2022-07-15T05:31:06;3.50;;;3.20;;
45326;SDS011;31062;49.678;24.560;2022-07-15T05:33:52;6.05;;;3.25;;
45326;SDS011;31062;49.678;24.560;2022-07-15T05:36:39;5.20;;;3.63;;
45326;SDS011;31062;49.678;24.560;2022-07-15T05:39:30;6.95;;;4.45;;
45326;SDS011;31062;49.678;24.560;2022-07-15T05:42:15;5.13;;;4.50;;
45326;SDS011;31062;49.678;24.560;2022-07-15T05:45:02;4.75;;;4.32;;
45326;SDS011;31062;49.678;24.560;2022-07-15T05:47:50;4.80;;;4.30;;
45326;SDS011;31062;49.678;24.560;2022-07-15T05:50:39;9.77;;;5.35;;
45326;SDS011;31062;49.678;24.560;2022-07-15T05:53:26;6.65;;;4.10;;
45326;SDS011;31062;49.678;24.560;2022-07-15T05:56:12;4.60;;;4.20;;
45326;SDS011;31062;49.678;24.560;2022-07-15T05:58:57;4.30;;;3.92;;
45326;SDS011;31062;49.678;24.560;2022-07-15T06:01:48;4.03;;;3.63;;
45326;SDS011;31062;49.678;24.560;2022-07-15T06:04:34;3.45;;;3.13;;
45326;SDS011;31062;49.678;24.560;2022-07-15T06:07:22;3.72;;;3.42;;
45326;SDS011;31062;49.678;24.560;2022-07-15T06:10:10;3.90;;;3.50;;
45326;SDS011;31062;49.678;24.560;2022-07-15T06:12:56;3.63;;;3.03;;
45326;SDS011;31062;49.678;24.560;2022-07-15T06:15:42;3.15;;;2.95;;
45326;SDS011;31062;49.678;24.560;2022-07-15T06:18:36;4.10;;;3.20;;
45326;SDS011;31062;49.678;24.560;2022-07-15T06:21:23;3.95;;;3.40;;
45326;SDS011;31062;49.678;24.560;2022-07-15T06:24:08;4.55;;;3.30;;
45326;SDS011;31062;49.678;24.560;2022-07-15T06:26:53;3.97;;;3.65;;
45326;SDS011;31062;49.678;24.560;2022-07-15T06:29:40;3.25;;;3.05;;
45326;SDS011;31062;49.678;24.560;2022-07-15T06:32:25;3.90;;;3.20;;
45326;SDS011;31062;49.678;24.560;2022-07-15T06:35:11;5.93;;;3.45;;
45326;SDS011;31062;49.678;24.560;2022-07-15T06:37:56;3.47;;;3.17;;
45326;SDS011;31062;49.678;24.560;2022-07-15T06:40:42;3.92;;;3.03;;
45326;SDS011;31062;49.678;24.560;2022-07-15T06:43:29;4.55;;;4.15;;
45326;SDS011;31062;49.678;24.560;2022-07-15T06:46:26;3.25;;;3.05;;
45326;SDS011;31062;49.678;24.560;2022-07-15T06:49:13;3.70;;;3.40;;
45326;SDS011;31062;49.678;24.560;2022-07-15T06:51:58;3.70;;;3.40;;
45326;SDS011;31062;49.678;24.560;2022-07-15T06:54:44;3.35;;;3.05;;
45326;SDS011;31062;49.678;24.560;2022-07-15T06:57:29;3.63;;;3.30;;
45326;SDS011;31062;49.678;24.560;2022-07-15T07:00:16;3.30;;;3.00;;
45326;SDS011;31062;49.678;24.560;2022-07-15T07:03:01;4.40;;;3.17;;
45326;SDS011;31062;49.678;24.560;2022-07-15T07:05:48;3.42;;;3.13;;
45326;SDS011;31062;49.678;24.560;2022-07-15T07:08:35;3.75;;;3.10;;
45326;SDS011;31062;49.678;24.560;2022-07-15T07:11:20;3.22;;;3.03;;
45326;SDS011;31062;49.678;24.560;2022-07-15T07:14:06;3.42;;;2.67;;
45326;SDS011;31062;49.678;24.560;2022-07-15T07:16:51;3.50;;;3.20;;
45326;SDS011;31062;49.678;24.560;2022-07-15T07:19:38;3.53;;;3.20;;
45326;SDS011;31062;49.678;24.560;2022-07-15T07:22:23;4.88;;;3.08;;
45326;SDS011;31062;49.678;24.560;2022-07-15T07:25:09;3.20;;;2.90;;
45326;SDS011;31062;49.678;24.560;2022-07-15T07:27:55;3.28;;;3.05;;
45326;SDS011;31062;49.678;24.560;2022-07-15T07:30:41;4.15;;;3.50;;
45326;SDS011;31062;49.678;24.560;2022-07-15T07:33:26;2.67;;;2.47;;
45326;SDS011;31062;49.678;24.560;2022-07-15T07:37:47;3.08;;;2.88;;
45326;SDS011;31062;49.678;24.560;2022-07-15T07:40:33;1.98;;;1.88;;
45326;SDS011;31062;49.678;24.560;2022-07-15T07:43:19;8.88;;;2.10;;
45326;SDS011;31062;49.678;24.560;2022-07-15T07:46:05;2.00;;;1.90;;
45326;SDS011;31062;49.678;24.560;2022-07-15T07:48:51;2.05;;;1.95;;
45326;SDS011;31062;49.678;24.560;2022-07-15T07:51:57;2.08;;;1.98;;
45326;SDS011;31062;49.678;24.560;2022-07-15T07:54:42;3.05;;;1.92;;
45326;SDS011;31062;49.678;24.560;2022-07-15T07:57:29;2.13;;;1.95;;
45326;SDS011;31062;49.678;24.560;2022-07-15T08:00:14;2.22;;;1.80;;
45326;SDS011;31062;49.678;24.560;2022-07-15T08:03:00;7.60;;;2.45;;
45326;SDS011;31062;49.678;24.560;2022-07-15T08:05:46;1.88;;;1.77;;
45326;SDS011;31062;49.678;24.560;2022-07-15T08:08:32;4.28;;;1.70;;
45326;SDS011;31062;49.678;24.560;2022-07-15T08:11:17;1.80;;;1.70;;
45326;SDS011;31062;49.678;24.560;2022-07-15T08:14:04;2.35;;;1.80;;
45326;SDS011;31062;49.678;24.560;2022-07-15T08:16:50;2.00;;;1.60;;
45326;SDS011;31062;49.678;24.560;2022-07-15T08:19:36;1.60;;;1.50;;
45326;SDS011;31062;49.678;24.560;2022-07-15T08:22:22;1.60;;;1.45;;
45326;SDS011;31062;49.678;24.560;2022-07-15T08:25:08;5.93;;;1.92;;
45326;SDS011;31062;49.678;24.560;2022-07-15T08:27:53;6.40;;;1.50;;
45326;SDS011;31062;49.678;24.560;2022-07-15T08:30:40;4.00;;;1.60;;
45326;SDS011;31062;49.678;24.560;2022-07-15T08:33:25;1.95;;;1.50;;
45326;SDS011;31062;49.678;24.560;2022-07-15T08:36:11;1.67;;;1.45;;
45326;SDS011;31062;49.678;24.560;2022-07-15T08:38:56;1.65;;;1.50;;
45326;SDS011;31062;49.678;24.560;2022-07-15T08:41:42;1.90;;;1.40;;
45326;SDS011;31062;49.678;24.560;2022-07-15T08:44:28;1.45;;;1.35;;
45326;SDS011;31062;49.678;24.560;2022-07-15T08:47:13;2.15;;;1.50;;
45326;SDS011;31062;49.678;24.560;2022-07-15T08:50:19;1.73;;;1.63;;
45326;SDS011;31062;49.678;24.560;2022-07-15T08:53:06;5.03;;;4.00;;
45326;SDS011;31062;49.678;24.560;2022-07-15T08:55:52;3.47;;;2.00;;
45326;SDS011;31062;49.678;24.560;2022-07-15T08:58:38;1.58;;;1.48;;
45326;SDS011;31062;49.678;24.560;2022-07-15T09:01:44;2.00;;;1.90;;
45326;SDS011;31062;49.678;24.560;2022-07-15T09:04:32;1.98;;;1.88;;
45326;SDS011;31062;49.678;24.560;2022-07-15T09:07:17;2.22;;;2.03;;
45326;SDS011;31062;49.678;24.560;2022-07-15T09:10:03;1.88;;;1.77;;
45326;SDS011;31062;49.678;24.560;2022-07-15T09:12:53;4.45;;;2.28;;
45326;SDS011;31062;49.678;24.560;2022-07-15T09:15:39;4.10;;;1.90;;
45326;SDS011;31062;49.678;24.560;2022-07-15T09:18:30;1.95;;;1.85;;
45326;SDS011;31062;49.678;24.560;2022-07-15T09:21:23;5.45;;;2.67;;
45326;SDS011;31062;49.678;24.560;2022-07-15T09:24:15;2.95;;;2.72;;
45326;SDS011;31062;49.678;24.560;2022-07-15T09:27:03;5.50;;;2.75;;
45326;SDS011;31062;49.678;24.560;2022-07-15T09:33:28;3.40;;;2.67;;
45326;SDS011;31062;49.678;24.560;2022-07-15T09:36:23;3.10;;;2.90;;
45326;SDS011;31062;49.678;24.560;2022-07-15T09:39:11;3.80;;;2.90;;
45326;SDS011;31062;49.678;24.560;2022-07-15T09:42:04;7.07;;;2.88;;
45326;SDS011;31062;49.678;24.560;2022-07-15T09:44:51;4.05;;;2.40;;
45326;SDS011;31062;49.678;24.560;2022-07-15T09:47:37;3.95;;;2.60;;
45326;SDS011;31062;49.678;24.560;2022-07-15T09:50:34;2.55;;;2.35;;
45326;SDS011;31062;49.678;24.560;2022-07-15T09:53:20;2.78;;;2.58;;
45326;SDS011;31062;49.678;24.560;2022-07-15T09:56:07;2.72;;;2.53;;
45326;SDS011;31062;49.678;24.560;2022-07-15T09:58:55;3.42;;;2.88;;
45326;SDS011;31062;49.678;24.560;2022-07-15T10:01:41;3.53;;;3.22;;
45326;SDS011;31062;49.678;24.560;2022-07-15T10:04:28;3.35;;;3.13;;
45326;SDS011;31062;49.678;24.560;2022-07-15T10:07:16;6.22;;;3.72;;
45326;SDS011;31062;49.678;24.560;2022-07-15T10:10:18;4.00;;;3.30;;
45326;SDS011;31062;49.678;24.560;2022-07-15T10:13:09;4.32;;;3.63;;
45326;SDS011;31062;49.678;24.560;2022-07-15T10:18:56;6.70;;;4.28;;
45326;SDS011;31062;49.678;24.560;2022-07-15T10:28:54;5.40;;;5.00;;
45326;SDS011;31062;49.678;24.560;2022-07-15T10:31:42;4.82;;;4.43;;
45326;SDS011;31062;49.678;24.560;2022-07-15T10:34:31;5.55;;;5.05;;
45326;SDS011;31062;49.678;24.560;2022-07-15T10:37:20;6.78;;;5.05;;
45326;SDS011;31062;49.678;24.560;2022-07-15T10:40:06;5.80;;;5.25;;
45326;SDS011;31062;49.678;24.560;2022-07-15T10:43:01;5.13;;;4.70;;
45326;SDS011;31062;49.678;24.560;2022-07-15T10:46:01;6.40;;;5.10;;
45326;SDS011;31062;49.678;24.560;2022-07-15T10:48:49;4.47;;;4.07;;
45326;SDS011;31062;49.678;24.560;2022-07-15T10:57:11;5.07;;;3.78;;
45326;SDS011;31062;49.678;24.560;2022-07-15T10:59:58;3.78;;;3.47;;
45326;SDS011;31062;49.678;24.560;2022-07-15T11:06:04;5.05;;;3.60;;
45326;SDS011;31062;49.678;24.560;2022-07-15T11:08:52;7.50;;;3.40;;
45326;SDS011;31062;49.678;24.560;2022-07-15T11:17:52;6.13;;;2.38;;
45326;SDS011;31062;49.678;24.560;2022-07-15T11:20:47;3.03;;;2.70;;
45326;SDS011;31062;49.678;24.560;2022-07-15T11:23:34;10.95;;;3.90;;
45326;SDS011;31062;49.678;24.560;2022-07-15T11:26:20;5.15;;;3.00;;
45326;SDS011;31062;49.678;24.560;2022-07-15T11:29:06;3.17;;;2.80;;
45326;SDS011;31062;49.678;24.560;2022-07-15T11:31:53;4.03;;;2.67;;
45326;SDS011;31062;49.678;24.560;2022-07-15T11:34:42;3.90;;;2.45;;
45326;SDS011;31062;49.678;24.560;2022-07-15T11:37:30;4.25;;;2.58;;
45326;SDS011;31062;49.678;24.560;2022-07-15T11:40:18;2.47;;;2.28;;
45326;SDS011;31062;49.678;24.560;2022-07-15T11:43:22;6.10;;;2.70;;
45326;SDS011;31062;49.678;24.560;2022-07-15T11:46:27;4.07;;;2.40;;
45326;SDS011;31062;49.678;24.560;2022-07-15T11:49:34;4.28;;;2.40;;
45326;SDS011;31062;49.678;24.560;2022-07-15T11:52:22;5.97;;;2.20;;
45326;SDS011;31062;49.678;24.560;2022-07-15T11:55:10;6.32;;;1.98;;
45326;SDS011;31062;49.678;24.560;2022-07-15T11:57:56;2.25;;;2.03;;
45326;SDS011;31062;49.678;24.560;2022-07-15T12:00:48;4.28;;;2.30;;
45326;SDS011;31062;49.678;24.560;2022-07-15T12:03:41;6.47;;;2.53;;
45326;SDS011;31062;49.678;24.560;2022-07-15T12:06:31;5.63;;;2.20;;
45326;SDS011;31062;49.678;24.560;2022-07-15T12:09:20;10.82;;;2.40;;
45326;SDS011;31062;49.678;24.560;2022-07-15T12:12:09;2.17;;;1.98;;
45326;SDS011;31062;49.678;24.560;2022-07-15T12:14:55;3.85;;;1.88;;
45326;SDS011;31062;49.678;24.560;2022-07-15T12:17:41;3.30;;;1.70;;
45326;SDS011;31062;49.678;24.560;2022-07-15T12:20:27;1.92;;;1.60;;
45326;SDS011;31062;49.678;24.560;2022-07-15T12:23:13;1.98;;;1.73;;
45326;SDS011;31062;49.678;24.560;2022-07-15T12:26:03;1.90;;;1.50;;
45326;SDS011;31062;49.678;24.560;2022-07-15T12:28:53;2.80;;;1.60;;
45326;SDS011;31062;49.678;24.560;2022-07-15T12:31:40;4.70;;;1.35;;
45326;SDS011;31062;49.678;24.560;2022-07-15T12:40:22;2.75;;;1.50;;
45326;SDS011;31062;49.678;24.560;2022-07-15T12:43:13;1.30;;;1.20;;
45326;SDS011;31062;49.678;24.560;2022-07-15T12:45:58;1.80;;;1.42;;
45326;SDS011;31062;49.678;24.560;2022-07-15T12:48:47;2.00;;;1.33;;
45326;SDS011;31062;49.678;24.560;2022-07-15T12:51:34;3.97;;;1.58;;
45326;SDS011;31062;49.678;24.560;2022-07-15T12:54:19;2.47;;;1.48;;
45326;SDS011;31062;49.678;24.560;2022-07-15T12:57:05;2.20;;;1.45;;
45326;SDS011;31062;49.678;24.560;2022-07-15T13:00:25;1.98;;;1.60;;
45326;SDS011;31062;49.678;24.560;2022-07-15T13:03:10;2.67;;;1.58;;
45326;SDS011;31062;49.678;24.560;2022-07-15T13:06:09;2.78;;;1.60;;
45326;SDS011;31062;49.678;24.560;2022-07-15T13:08:57;1.75;;;1.65;;
45326;SDS011;31062;49.678;24.560;2022-07-15T13:11:56;2.78;;;1.30;;
45326;SDS011;31062;49.678;24.560;2022-07-15T13:14:43;3.65;;;1.73;;
45326;SDS011;31062;49.678;24.560;2022-07-15T13:17:28;1.20;;;1.10;;
45326;SDS011;31062;49.678;24.560;2022-07-15T13:20:14;6.60;;;1.77;;
45326;SDS011;31062;49.678;24.560;2022-07-15T13:22:59;3.30;;;1.33;;
45326;SDS011;31062;49.678;24.560;2022-07-15T13:25:45;2.30;;;1.27;;
45326;SDS011;31062;49.678;24.560;2022-07-15T13:28:33;2.88;;;1.42;;
45326;SDS011;31062;49.678;24.560;2022-07-15T13:31:18;2.53;;;1.67;;
45326;SDS011;31062;49.678;24.560;2022-07-15T13:34:04;1.95;;;1.73;;
45326;SDS011;31062;49.678;24.560;2022-07-15T13:36:49;11.02;;;1.83;;
45326;SDS011;31062;49.678;24.560;2022-07-15T13:39:35;4.13;;;1.65;;
45326;SDS011;31062;49.678;24.560;2022-07-15T13:42:21;4.18;;;1.42;;
45326;SDS011;31062;49.678;24.560;2022-07-15T13:45:10;5.68;;;1.65;;
45326;SDS011;31062;49.678;24.560;2022-07-15T13:47:57;2.45;;;1.63;;
45326;SDS011;31062;49.678;24.560;2022-07-15T13:50:44;3.30;;;1.08;;
45326;SDS011;31062;49.678;24.560;2022-07-15T13:53:52;4.18;;;1.33;;
45326;SDS011;31062;49.678;24.560;2022-07-15T13:56:41;1.48;;;1.27;;
45326;SDS011;31062;49.678;24.560;2022-07-15T13:59:26;3.45;;;1.48;;
45326;SDS011;31062;49.678;24.560;2022-07-15T14:02:12;1.55;;;1.23;;
45326;SDS011;31062;49.678;24.560;2022-07-15T14:04:58;3.17;;;1.48;;
45326;SDS011;31062;49.678;24.560;2022-07-15T14:07:44;1.23;;;1.00;;
45326;SDS011;31062;49.678;24.560;2022-07-15T14:10:30;4.20;;;1.80;;
45326;SDS011;31062;49.678;24.560;2022-07-15T14:13:15;2.40;;;0.85;;
45326;SDS011;31062;49.678;24.560;2022-07-15T14:16:01;3.70;;;0.93;;
45326;SDS011;31062;49.678;24.560;2022-07-15T14:18:47;2.08;;;1.10;;
45326;SDS011;31062;49.678;24.560;2022-07-15T14:21:32;3.08;;;1.30;;
45326;SDS011;31062;49.678;24.560;2022-07-15T14:24:26;2.78;;;1.00;;
45326;SDS011;31062;49.678;24.560;2022-07-15T14:27:12;4.22;;;1.23;;
45326;SDS011;31062;49.678;24.560;2022-07-15T14:29:58;2.33;;;0.90;;
45326;SDS011;31062;49.678;24.560;2022-07-15T14:32:46;1.85;;;1.25;;
45326;SDS011;31062;49.678;24.560;2022-07-15T14:35:32;4.30;;;2.00;;
45326;SDS011;31062;49.678;24.560;2022-07-15T14:38:18;3.80;;;1.40;;
45326;SDS011;31062;49.678;24.560;2022-07-15T14:41:05;3.00;;;1.20;;
45326;SDS011;31062;49.678;24.560;2022-07-15T14:43:52;0.88;;;0.70;;
45326;SDS011;31062;49.678;24.560;2022-07-15T14:46:38;1.30;;;0.80;;
45326;SDS011;31062;49.678;24.560;2022-07-15T14:49:25;2.67;;;1.05;;
45326;SDS011;31062;49.678;24.560;2022-07-15T14:52:11;3.15;;;1.35;;
45326;SDS011;31062;49.678;24.560;2022-07-15T14:54:56;1.70;;;1.10;;
45326;SDS011;31062;49.678;24.560;2022-07-15T14:57:42;1.00;;;0.80;;
45326;SDS011;31062;49.678;24.560;2022-07-15T15:00:27;1.30;;;0.93;;
45326;SDS011;31062;49.678;24.560;2022-07-15T15:03:12;2.28;;;1.17;;
45326;SDS011;31062;49.678;24.560;2022-07-15T15:05:58;2.38;;;0.80;;
45326;SDS011;31062;49.678;24.560;2022-07-15T15:08:44;3.10;;;0.98;;
45326;SDS011;31062;49.678;24.560;2022-07-15T15:11:29;1.20;;;0.90;;
45326;SDS011;31062;49.678;24.560;2022-07-15T15:14:15;1.42;;;1.33;;
45326;SDS011;31062;49.678;24.560;2022-07-15T15:17:01;3.42;;;1.00;;
45326;SDS011;31062;49.678;24.560;2022-07-15T15:19:49;5.63;;;0.93;;
45326;SDS011;31062;49.678;24.560;2022-07-15T15:22:35;1.35;;;0.95;;
45326;SDS011;31062;49.678;24.560;2022-07-15T15:25:20;1.55;;;1.00;;
45326;SDS011;31062;49.678;24.560;2022-07-15T15:28:35;3.00;;;1.20;;
45326;SDS011;31062;49.678;24.560;2022-07-15T15:31:20;4.25;;;1.33;;
45326;SDS011;31062;49.678;24.560;2022-07-15T15:34:07;1.52;;;0.98;;
45326;SDS011;31062;49.678;24.560;2022-07-15T15:36:53;2.33;;;1.00;;
45326;SDS011;31062;49.678;24.560;2022-07-15T15:39:39;3.78;;;1.05;;
45326;SDS011;31062;49.678;24.560;2022-07-15T15:42:25;2.92;;;1.40;;
45326;SDS011;31062;49.678;24.560;2022-07-15T15:45:10;3.63;;;1.20;;
45326;SDS011;31062;49.678;24.560;2022-07-15T15:47:56;3.08;;;1.15;;
45326;SDS011;31062;49.678;24.560;2022-07-15T15:50:41;4.47;;;1.02;;
45326;SDS011;31062;49.678;24.560;2022-07-15T15:53:26;2.10;;;1.00;;
45326;SDS011;31062;49.678;24.560;2022-07-15T15:56:12;0.82;;;0.82;;
45326;SDS011;31062;49.678;24.560;2022-07-15T15:58:57;2.20;;;0.88;;
45326;SDS011;31062;49.678;24.560;2022-07-15T16:01:43;1.58;;;0.80;;
45326;SDS011;31062;49.678;24.560;2022-07-15T16:04:29;6.28;;;0.80;;
45326;SDS011;31062;49.678;24.560;2022-07-15T16:07:18;0.80;;;0.77;;
45326;SDS011;31062;49.678;24.560;2022-07-15T16:10:05;3.20;;;1.10;;
45326;SDS011;31062;49.678;24.560;2022-07-15T16:12:51;0.60;;;0.60;;
45326;SDS011;31062;49.678;24.560;2022-07-15T16:15:36;3.63;;;0.90;;
45326;SDS011;31062;49.678;24.560;2022-07-15T16:18:22;2.03;;;0.95;;
45326;SDS011;31062;49.678;24.560;2022-07-15T16:21:08;1.85;;;1.00;;
45326;SDS011;31062;49.678;24.560;2022-07-15T16:23:53;1.80;;;0.90;;
45326;SDS011;31062;49.678;24.560;2022-07-15T16:26:39;1.02;;;0.90;;
45326;SDS011;31062;49.678;24.560;2022-07-15T16:29:24;1.60;;;0.90;;
45326;SDS011;31062;49.678;24.560;2022-07-15T16:32:10;3.60;;;0.95;;
45326;SDS011;31062;49.678;24.560;2022-07-15T16:34:55;2.97;;;1.35;;
45326;SDS011;31062;49.678;24.560;2022-07-15T16:37:40;4.65;;;1.10;;
45326;SDS011;31062;49.678;24.560;2022-07-15T16:40:27;3.30;;;0.95;;
45326;SDS011;31062;49.678;24.560;2022-07-15T16:43:13;4.53;;;0.90;;
45326;SDS011;31062;49.678;24.560;2022-07-15T16:45:59;2.83;;;1.10;;
45326;SDS011;31062;49.678;24.560;2022-07-15T16:48:45;4.30;;;1.23;;
45326;SDS011;31062;49.678;24.560;2022-07-15T16:51:31;2.45;;;1.13;;
45326;SDS011;31062;49.678;24.560;2022-07-15T16:54:16;0.90;;;0.80;;
45326;SDS011;31062;49.678;24.560;2022-07-15T16:57:07;1.90;;;0.90;;
45326;SDS011;31062;49.678;24.560;2022-07-15T16:59:53;2.35;;;0.80;;
45326;SDS011;31062;49.678;24.560;2022-07-15T17:02:38;4.45;;;1.17;;
45326;SDS011;31062;49.678;24.560;2022-07-15T17:05:24;1.17;;;0.90;;
45326;SDS011;31062;49.678;24.560;2022-07-15T17:08:18;2.05;;;0.77;;
45326;SDS011;31062;49.678;24.560;2022-07-15T17:11:04;1.25;;;1.00;;